sensor_id;sensor_type;location;lat;lon;timestamp;temperature;humidity
79439;DHT22;68889;48.232;10.110;2023-12-07T00:01:49;0.40;99.90
79439;DHT22;68889;48.232;10.110;2023-12-07T00:04:14;0.30;99.90
79439;DHT22;68889;48.232;10.110;2023-12-07T00:06:40;0.30;99.90
79439;DHT22;68889;48.232;10.110;2023-12-07T00:09:05;0.20;99.90
79439;DHT22;68889;48.232;10.110;2023-12-07T00:11:31;0.10;99.90
79439;DHT22;68889;48.232;10.110;2023-12-07T00:13:58;0.10;99.90
79439;DHT22;68889;48.232;10.110;2023-12-07T00:16:23;0.10;99.90
79439;DHT22;68889;48.232;10.110;2023-12-07T00:18:49;0.10;99.90
79439;DHT22;68889;48.232;10.110;2023-12-07T00:21:15;0.10;99.90
79439;DHT22;68889;48.232;10.110;2023-12-07T00:23:41;0.10;99.90
79439;DHT22;68889;48.232;10.110;2023-12-07T00:26:07;0.10;99.90
79439;DHT22;68889;48.232;10.110;2023-12-07T00:28:33;0.10;99.90
79439;DHT22;68889;48.232;10.110;2023-12-07T00:30:59;0.10;99.90
79439;DHT22;68889;48.232;10.110;2023-12-07T00:33:24;0.10;99.90
79439;DHT22;68889;48.232;10.110;2023-12-07T00:35:50;0.10;99.90
79439;DHT22;68889;48.232;10.110;2023-12-07T00:38:16;0.10;99.90
79439;DHT22;68889;48.232;10.110;2023-12-07T00:40:41;0.10;99.90
79439;DHT22;68889;48.232;10.110;2023-12-07T00:43:07;0.10;99.90
79439;DHT22;68889;48.232;10.110;2023-12-07T00:45:33;0.20;99.90
79439;DHT22;68889;48.232;10.110;2023-12-07T00:47:59;0.20;99.90
79439;DHT22;68889;48.232;10.110;2023-12-07T00:50:25;0.20;99.90
79439;DHT22;68889;48.232;10.110;2023-12-07T00:52:51;0.20;99.90
79439;DHT22;68889;48.232;10.110;2023-12-07T00:55:17;0.20;99.90
79439;DHT22;68889;48.232;10.110;2023-12-07T00:57:42;0.20;99.90
79439;DHT22;68889;48.232;10.110;2023-12-07T01:00:10;0.30;99.90
79439;DHT22;68889;48.232;10.110;2023-12-07T01:02:37;0.30;99.90
79439;DHT22;68889;48.232;10.110;2023-12-07T01:05:04;0.30;99.90
79439;DHT22;68889;48.232;10.110;2023-12-07T01:07:31;0.30;99.90
79439;DHT22;68889;48.232;10.110;2023-12-07T01:09:56;0.20;99.90
79439;DHT22;68889;48.232;10.110;2023-12-07T01:12:22;0.20;99.90
79439;DHT22;68889;48.232;10.110;2023-12-07T01:14:48;0.20;99.90
79439;DHT22;68889;48.232;10.110;2023-12-07T01:17:13;0.10;99.90
79439;DHT22;68889;48.232;10.110;2023-12-07T01:19:39;0.20;99.90
79439;DHT22;68889;48.232;10.110;2023-12-07T01:22:05;0.20;99.90
79439;DHT22;68889;48.232;10.110;2023-12-07T01:24:31;0.20;99.90
79439;DHT22;68889;48.232;10.110;2023-12-07T01:26:56;0.20;99.90
79439;DHT22;68889;48.232;10.110;2023-12-07T01:29:23;0.20;99.90
79439;DHT22;68889;48.232;10.110;2023-12-07T01:31:49;0.20;99.90
79439;DHT22;68889;48.232;10.110;2023-12-07T01:34:16;0.30;99.90
79439;DHT22;68889;48.232;10.110;2023-12-07T01:36:42;0.30;99.90
79439;DHT22;68889;48.232;10.110;2023-12-07T01:39:08;0.30;99.90
79439;DHT22;68889;48.232;10.110;2023-12-07T01:41:36;0.40;99.90
79439;DHT22;68889;48.232;10.110;2023-12-07T01:44:02;0.40;99.90
79439;DHT22;68889;48.232;10.110;2023-12-07T01:46:28;0.40;99.90
79439;DHT22;68889;48.232;10.110;2023-12-07T01:48:55;0.40;99.90
79439;DHT22;68889;48.232;10.110;2023-12-07T01:51:22;0.40;99.90
79439;DHT22;68889;48.232;10.110;2023-12-07T01:53:48;0.50;99.90
79439;DHT22;68889;48.232;10.110;2023-12-07T01:56:14;0.50;99.90
79439;DHT22;68889;48.232;10.110;2023-12-07T01:58:41;0.40;99.90
79439;DHT22;68889;48.232;10.110;2023-12-07T02:01:09;0.40;99.90
79439;DHT22;68889;48.232;10.110;2023-12-07T02:03:39;0.40;99.90
79439;DHT22;68889;48.232;10.110;2023-12-07T02:06:05;0.40;99.90
79439;DHT22;68889;48.232;10.110;2023-12-07T02:08:31;0.40;99.90
79439;DHT22;68889;48.232;10.110;2023-12-07T02:10:57;0.50;99.90
79439;DHT22;68889;48.232;10.110;2023-12-07T02:13:23;0.50;99.90
79439;DHT22;68889;48.232;10.110;2023-12-07T02:15:50;0.50;99.90
79439;DHT22;68889;48.232;10.110;2023-12-07T02:18:21;0.40;99.90
79439;DHT22;68889;48.232;10.110;2023-12-07T02:21:16;0.40;99.90
79439;DHT22;68889;48.232;10.110;2023-12-07T02:23:44;0.40;99.90
79439;DHT22;68889;48.232;10.110;2023-12-07T02:26:13;0.40;99.90
79439;DHT22;68889;48.232;10.110;2023-12-07T02:28:42;0.30;99.90
79439;DHT22;68889;48.232;10.110;2023-12-07T02:31:08;0.30;99.90
79439;DHT22;68889;48.232;10.110;2023-12-07T02:33:34;0.30;99.90
79439;DHT22;68889;48.232;10.110;2023-12-07T02:35:59;0.30;99.90
79439;DHT22;68889;48.232;10.110;2023-12-07T02:38:26;0.20;99.90
79439;DHT22;68889;48.232;10.110;2023-12-07T02:40:54;0.20;99.90
79439;DHT22;68889;48.232;10.110;2023-12-07T02:43:21;0.20;99.90
79439;DHT22;68889;48.232;10.110;2023-12-07T02:45:47;0.20;99.90
79439;DHT22;68889;48.232;10.110;2023-12-07T02:48:13;0.20;99.90
79439;DHT22;68889;48.232;10.110;2023-12-07T02:50:39;0.10;99.90
79439;DHT22;68889;48.232;10.110;2023-12-07T02:53:04;0.10;99.90
79439;DHT22;68889;48.232;10.110;2023-12-07T02:55:30;0.10;99.90
79439;DHT22;68889;48.232;10.110;2023-12-07T02:57:56;0.20;99.90
79439;DHT22;68889;48.232;10.110;2023-12-07T03:00:21;0.20;99.90
79439;DHT22;68889;48.232;10.110;2023-12-07T03:02:47;0.20;99.90
79439;DHT22;68889;48.232;10.110;2023-12-07T03:05:13;0.20;99.90
79439;DHT22;68889;48.232;10.110;2023-12-07T03:07:40;0.20;99.90
79439;DHT22;68889;48.232;10.110;2023-12-07T03:10:07;0.20;99.90
79439;DHT22;68889;48.232;10.110;2023-12-07T03:12:32;0.10;99.90
79439;DHT22;68889;48.232;10.110;2023-12-07T03:14:58;0.10;99.90
79439;DHT22;68889;48.232;10.110;2023-12-07T03:17:23;0.00;99.90
79439;DHT22;68889;48.232;10.110;2023-12-07T03:19:49;0.00;99.90
79439;DHT22;68889;48.232;10.110;2023-12-07T03:22:14;-0.10;99.90
79439;DHT22;68889;48.232;10.110;2023-12-07T03:24:45;-0.20;99.90
79439;DHT22;68889;48.232;10.110;2023-12-07T03:27:11;-0.30;99.90
79439;DHT22;68889;48.232;10.110;2023-12-07T03:29:37;-0.40;99.90
79439;DHT22;68889;48.232;10.110;2023-12-07T03:32:03;-0.50;99.90
79439;DHT22;68889;48.232;10.110;2023-12-07T03:34:28;-0.50;99.90
79439;DHT22;68889;48.232;10.110;2023-12-07T03:36:54;-0.60;99.90
79439;DHT22;68889;48.232;10.110;2023-12-07T03:39:19;-0.70;99.90
79439;DHT22;68889;48.232;10.110;2023-12-07T03:41:47;-0.80;99.90
79439;DHT22;68889;48.232;10.110;2023-12-07T03:44:13;-0.90;99.90
79439;DHT22;68889;48.232;10.110;2023-12-07T03:46:38;-1.00;99.90
79439;DHT22;68889;48.232;10.110;2023-12-07T03:49:04;-1.10;99.90
79439;DHT22;68889;48.232;10.110;2023-12-07T03:51:32;-1.20;99.90
79439;DHT22;68889;48.232;10.110;2023-12-07T03:53:57;-1.30;99.90
79439;DHT22;68889;48.232;10.110;2023-12-07T03:56:32;-1.40;99.90
79439;DHT22;68889;48.232;10.110;2023-12-07T03:58:58;-1.40;99.90
79439;DHT22;68889;48.232;10.110;2023-12-07T04:01:25;-1.40;99.90
79439;DHT22;68889;48.232;10.110;2023-12-07T04:03:52;-1.50;99.90
79439;DHT22;68889;48.232;10.110;2023-12-07T04:06:18;-1.50;99.90
79439;DHT22;68889;48.232;10.110;2023-12-07T04:08:45;-1.50;99.90
79439;DHT22;68889;48.232;10.110;2023-12-07T04:11:14;-1.50;99.90
79439;DHT22;68889;48.232;10.110;2023-12-07T04:13:41;-1.50;99.90
79439;DHT22;68889;48.232;10.110;2023-12-07T04:16:09;-1.60;99.90
79439;DHT22;68889;48.232;10.110;2023-12-07T04:18:35;-1.60;99.90
79439;DHT22;68889;48.232;10.110;2023-12-07T04:21:01;-1.60;99.90
79439;DHT22;68889;48.232;10.110;2023-12-07T04:23:26;-1.60;99.90
79439;DHT22;68889;48.232;10.110;2023-12-07T04:25:52;-1.70;99.90
79439;DHT22;68889;48.232;10.110;2023-12-07T04:28:18;-1.70;99.90
79439;DHT22;68889;48.232;10.110;2023-12-07T04:30:43;-1.80;99.90
79439;DHT22;68889;48.232;10.110;2023-12-07T04:33:09;-1.90;99.90
79439;DHT22;68889;48.232;10.110;2023-12-07T04:35:35;-1.90;99.90
79439;DHT22;68889;48.232;10.110;2023-12-07T04:38:01;-2.00;99.90
79439;DHT22;68889;48.232;10.110;2023-12-07T04:40:27;-2.00;99.90
79439;DHT22;68889;48.232;10.110;2023-12-07T04:42:53;-2.00;99.90
79439;DHT22;68889;48.232;10.110;2023-12-07T04:45:20;-1.90;99.90
79439;DHT22;68889;48.232;10.110;2023-12-07T04:47:46;-1.90;99.90
79439;DHT22;68889;48.232;10.110;2023-12-07T04:50:12;-2.00;99.90
79439;DHT22;68889;48.232;10.110;2023-12-07T04:52:38;-2.00;99.90
79439;DHT22;68889;48.232;10.110;2023-12-07T04:55:05;-2.00;99.90
79439;DHT22;68889;48.232;10.110;2023-12-07T04:57:34;-1.90;99.90
79439;DHT22;68889;48.232;10.110;2023-12-07T05:00:00;-1.90;99.90
79439;DHT22;68889;48.232;10.110;2023-12-07T05:02:25;-2.00;99.90
79439;DHT22;68889;48.232;10.110;2023-12-07T05:04:53;-2.00;99.90
79439;DHT22;68889;48.232;10.110;2023-12-07T05:07:19;-2.00;99.90
79439;DHT22;68889;48.232;10.110;2023-12-07T05:09:45;-2.10;99.90
79439;DHT22;68889;48.232;10.110;2023-12-07T05:12:11;-2.10;99.90
79439;DHT22;68889;48.232;10.110;2023-12-07T05:14:36;-2.10;99.90
79439;DHT22;68889;48.232;10.110;2023-12-07T05:17:02;-2.10;99.90
79439;DHT22;68889;48.232;10.110;2023-12-07T05:19:29;-2.10;99.90
79439;DHT22;68889;48.232;10.110;2023-12-07T05:21:55;-2.10;99.90
79439;DHT22;68889;48.232;10.110;2023-12-07T05:24:20;-2.20;99.90
79439;DHT22;68889;48.232;10.110;2023-12-07T05:26:46;-2.20;99.90
79439;DHT22;68889;48.232;10.110;2023-12-07T05:29:12;-2.20;99.90
79439;DHT22;68889;48.232;10.110;2023-12-07T05:31:38;-2.20;99.90
79439;DHT22;68889;48.232;10.110;2023-12-07T05:34:04;-2.30;99.90
79439;DHT22;68889;48.232;10.110;2023-12-07T05:36:31;-2.30;99.90
79439;DHT22;68889;48.232;10.110;2023-12-07T05:38:57;-2.30;99.90
79439;DHT22;68889;48.232;10.110;2023-12-07T05:41:23;-2.40;99.90
79439;DHT22;68889;48.232;10.110;2023-12-07T05:43:48;-2.40;99.90
79439;DHT22;68889;48.232;10.110;2023-12-07T05:46:14;-2.40;99.90
79439;DHT22;68889;48.232;10.110;2023-12-07T05:48:41;-2.40;99.90
79439;DHT22;68889;48.232;10.110;2023-12-07T05:51:12;-2.40;99.90
79439;DHT22;68889;48.232;10.110;2023-12-07T05:53:38;-2.40;99.90
79439;DHT22;68889;48.232;10.110;2023-12-07T05:56:04;-2.50;99.90
79439;DHT22;68889;48.232;10.110;2023-12-07T05:58:30;-2.50;99.90
79439;DHT22;68889;48.232;10.110;2023-12-07T06:00:57;-2.50;99.90
79439;DHT22;68889;48.232;10.110;2023-12-07T06:03:24;-2.60;99.90
79439;DHT22;68889;48.232;10.110;2023-12-07T06:05:51;-2.60;99.90
79439;DHT22;68889;48.232;10.110;2023-12-07T06:08:18;-2.60;99.90
79439;DHT22;68889;48.232;10.110;2023-12-07T06:10:43;-2.70;99.90
79439;DHT22;68889;48.232;10.110;2023-12-07T06:13:10;-2.70;99.90
79439;DHT22;68889;48.232;10.110;2023-12-07T06:15:36;-2.70;99.90
79439;DHT22;68889;48.232;10.110;2023-12-07T06:18:02;-2.70;99.90
79439;DHT22;68889;48.232;10.110;2023-12-07T06:20:28;-2.60;99.90
79439;DHT22;68889;48.232;10.110;2023-12-07T06:22:55;-2.60;99.90
79439;DHT22;68889;48.232;10.110;2023-12-07T06:25:20;-2.50;99.90
79439;DHT22;68889;48.232;10.110;2023-12-07T06:27:48;-2.50;99.90
79439;DHT22;68889;48.232;10.110;2023-12-07T06:30:13;-2.50;99.90
79439;DHT22;68889;48.232;10.110;2023-12-07T06:32:39;-2.40;99.90
79439;DHT22;68889;48.232;10.110;2023-12-07T06:35:05;-2.40;99.90
79439;DHT22;68889;48.232;10.110;2023-12-07T06:37:31;-2.40;99.90
79439;DHT22;68889;48.232;10.110;2023-12-07T06:39:57;-2.50;99.90
79439;DHT22;68889;48.232;10.110;2023-12-07T06:42:24;-2.60;99.90
79439;DHT22;68889;48.232;10.110;2023-12-07T06:44:49;-2.70;99.90
79439;DHT22;68889;48.232;10.110;2023-12-07T06:47:15;-2.70;99.90
79439;DHT22;68889;48.232;10.110;2023-12-07T06:49:41;-2.70;99.90
79439;DHT22;68889;48.232;10.110;2023-12-07T06:52:07;-2.70;99.90
79439;DHT22;68889;48.232;10.110;2023-12-07T06:54:33;-2.70;99.90
79439;DHT22;68889;48.232;10.110;2023-12-07T06:56:59;-2.70;99.90
79439;DHT22;68889;48.232;10.110;2023-12-07T06:59:25;-2.80;99.90
79439;DHT22;68889;48.232;10.110;2023-12-07T07:01:52;-2.80;99.90
79439;DHT22;68889;48.232;10.110;2023-12-07T07:04:17;-2.80;99.90
79439;DHT22;68889;48.232;10.110;2023-12-07T07:06:44;-2.90;99.90
79439;DHT22;68889;48.232;10.110;2023-12-07T07:09:09;-2.90;99.90
79439;DHT22;68889;48.232;10.110;2023-12-07T07:11:35;-3.00;99.90
79439;DHT22;68889;48.232;10.110;2023-12-07T07:14:02;-3.00;99.90
79439;DHT22;68889;48.232;10.110;2023-12-07T07:16:27;-3.00;99.90
79439;DHT22;68889;48.232;10.110;2023-12-07T07:18:53;-3.00;99.90
79439;DHT22;68889;48.232;10.110;2023-12-07T07:21:19;-3.00;99.90
79439;DHT22;68889;48.232;10.110;2023-12-07T07:23:47;-3.10;99.90
79439;DHT22;68889;48.232;10.110;2023-12-07T07:26:13;-3.10;99.90
79439;DHT22;68889;48.232;10.110;2023-12-07T07:28:43;-3.10;99.90
79439;DHT22;68889;48.232;10.110;2023-12-07T07:31:08;-3.10;99.90
79439;DHT22;68889;48.232;10.110;2023-12-07T07:33:34;-3.20;99.90
79439;DHT22;68889;48.232;10.110;2023-12-07T07:36:00;-3.10;99.90
79439;DHT22;68889;48.232;10.110;2023-12-07T07:38:26;-3.20;99.90
79439;DHT22;68889;48.232;10.110;2023-12-07T07:40:52;-3.20;99.90
79439;DHT22;68889;48.232;10.110;2023-12-07T07:43:17;-3.20;99.90
79439;DHT22;68889;48.232;10.110;2023-12-07T07:45:44;-3.10;99.90
79439;DHT22;68889;48.232;10.110;2023-12-07T07:48:11;-3.10;99.90
79439;DHT22;68889;48.232;10.110;2023-12-07T07:50:37;-3.00;99.90
79439;DHT22;68889;48.232;10.110;2023-12-07T07:53:03;-3.00;99.90
79439;DHT22;68889;48.232;10.110;2023-12-07T07:55:29;-2.90;99.90
79439;DHT22;68889;48.232;10.110;2023-12-07T07:57:55;-2.90;99.90
79439;DHT22;68889;48.232;10.110;2023-12-07T08:00:21;-3.00;99.90
79439;DHT22;68889;48.232;10.110;2023-12-07T08:02:48;-2.90;99.90
79439;DHT22;68889;48.232;10.110;2023-12-07T08:05:13;-2.90;99.90
79439;DHT22;68889;48.232;10.110;2023-12-07T08:07:40;-2.90;99.90
79439;DHT22;68889;48.232;10.110;2023-12-07T08:10:06;-2.90;99.90
79439;DHT22;68889;48.232;10.110;2023-12-07T08:12:33;-2.90;99.90
79439;DHT22;68889;48.232;10.110;2023-12-07T08:14:58;-2.80;99.90
79439;DHT22;68889;48.232;10.110;2023-12-07T08:17:24;-2.80;99.90
79439;DHT22;68889;48.232;10.110;2023-12-07T08:19:52;-2.80;99.70
79439;DHT22;68889;48.232;10.110;2023-12-07T08:22:17;-2.80;99.90
79439;DHT22;68889;48.232;10.110;2023-12-07T08:24:43;-2.70;99.90
79439;DHT22;68889;48.232;10.110;2023-12-07T08:27:08;-2.70;99.80
79439;DHT22;68889;48.232;10.110;2023-12-07T08:29:34;-2.60;99.50
79439;DHT22;68889;48.232;10.110;2023-12-07T08:32:00;-2.60;99.40
79439;DHT22;68889;48.232;10.110;2023-12-07T08:34:26;-2.60;99.80
79439;DHT22;68889;48.232;10.110;2023-12-07T08:36:52;-2.50;99.80
79439;DHT22;68889;48.232;10.110;2023-12-07T08:39:18;-2.40;98.80
79439;DHT22;68889;48.232;10.110;2023-12-07T08:41:43;-2.40;98.70
79439;DHT22;68889;48.232;10.110;2023-12-07T08:44:09;-2.40;98.20
79439;DHT22;68889;48.232;10.110;2023-12-07T08:46:35;-2.30;98.30
79439;DHT22;68889;48.232;10.110;2023-12-07T08:49:01;-2.20;98.10
79439;DHT22;68889;48.232;10.110;2023-12-07T08:51:28;-2.10;98.00
79439;DHT22;68889;48.232;10.110;2023-12-07T08:53:53;-2.00;98.70
79439;DHT22;68889;48.232;10.110;2023-12-07T08:56:20;-1.90;97.90
79439;DHT22;68889;48.232;10.110;2023-12-07T08:58:45;-1.80;98.20
79439;DHT22;68889;48.232;10.110;2023-12-07T09:01:11;-1.70;98.40
79439;DHT22;68889;48.232;10.110;2023-12-07T09:03:37;-1.60;97.40
79439;DHT22;68889;48.232;10.110;2023-12-07T09:06:03;-1.50;96.70
79439;DHT22;68889;48.232;10.110;2023-12-07T09:08:30;-1.40;96.90
79439;DHT22;68889;48.232;10.110;2023-12-07T09:10:55;-1.10;97.20
79439;DHT22;68889;48.232;10.110;2023-12-07T09:13:21;-1.00;98.70
79439;DHT22;68889;48.232;10.110;2023-12-07T09:15:46;-0.70;98.60
79439;DHT22;68889;48.232;10.110;2023-12-07T09:18:13;-0.60;97.40
79439;DHT22;68889;48.232;10.110;2023-12-07T09:20:39;-0.40;96.20
79439;DHT22;68889;48.232;10.110;2023-12-07T09:23:12;-0.20;95.50
79439;DHT22;68889;48.232;10.110;2023-12-07T09:25:38;-0.20;96.10
79439;DHT22;68889;48.232;10.110;2023-12-07T09:28:04;-0.10;96.90
79439;DHT22;68889;48.232;10.110;2023-12-07T09:30:30;0.00;95.70
79439;DHT22;68889;48.232;10.110;2023-12-07T09:32:55;0.20;94.80
79439;DHT22;68889;48.232;10.110;2023-12-07T09:35:21;0.30;95.00
79439;DHT22;68889;48.232;10.110;2023-12-07T09:37:48;0.50;94.70
79439;DHT22;68889;48.232;10.110;2023-12-07T09:40:14;0.70;94.40
79439;DHT22;68889;48.232;10.110;2023-12-07T09:42:40;0.80;94.20
79439;DHT22;68889;48.232;10.110;2023-12-07T09:45:08;0.90;94.40
79439;DHT22;68889;48.232;10.110;2023-12-07T09:47:37;1.10;93.90
79439;DHT22;68889;48.232;10.110;2023-12-07T09:50:05;1.20;94.00
79439;DHT22;68889;48.232;10.110;2023-12-07T09:52:32;1.30;93.50
79439;DHT22;68889;48.232;10.110;2023-12-07T09:54:57;1.50;93.30
79439;DHT22;68889;48.232;10.110;2023-12-07T09:57:24;1.60;92.70
79439;DHT22;68889;48.232;10.110;2023-12-07T09:59:50;1.70;92.20
79439;DHT22;68889;48.232;10.110;2023-12-07T10:02:15;1.70;91.90
79439;DHT22;68889;48.232;10.110;2023-12-07T10:04:41;1.80;92.40
79439;DHT22;68889;48.232;10.110;2023-12-07T10:07:07;1.90;92.10
79439;DHT22;68889;48.232;10.110;2023-12-07T10:09:39;2.00;92.00
79439;DHT22;68889;48.232;10.110;2023-12-07T10:12:08;2.10;92.00
79439;DHT22;68889;48.232;10.110;2023-12-07T10:14:33;2.20;91.70
79439;DHT22;68889;48.232;10.110;2023-12-07T10:17:00;2.20;92.00
79439;DHT22;68889;48.232;10.110;2023-12-07T10:19:26;2.40;90.90
79439;DHT22;68889;48.232;10.110;2023-12-07T10:21:53;2.40;91.30
79439;DHT22;68889;48.232;10.110;2023-12-07T10:24:21;2.60;90.90
79439;DHT22;68889;48.232;10.110;2023-12-07T10:26:48;2.60;90.70
79439;DHT22;68889;48.232;10.110;2023-12-07T10:29:14;2.70;90.00
79439;DHT22;68889;48.232;10.110;2023-12-07T10:31:40;2.70;90.10
79439;DHT22;68889;48.232;10.110;2023-12-07T10:34:06;2.80;90.10
79439;DHT22;68889;48.232;10.110;2023-12-07T10:36:32;2.90;90.20
79439;DHT22;68889;48.232;10.110;2023-12-07T10:39:00;2.90;90.40
79439;DHT22;68889;48.232;10.110;2023-12-07T10:41:26;2.90;89.90
79439;DHT22;68889;48.232;10.110;2023-12-07T10:43:54;3.00;90.10
79439;DHT22;68889;48.232;10.110;2023-12-07T10:46:21;3.00;90.40
79439;DHT22;68889;48.232;10.110;2023-12-07T10:48:54;3.10;89.70
79439;DHT22;68889;48.232;10.110;2023-12-07T10:51:41;3.20;89.00
79439;DHT22;68889;48.232;10.110;2023-12-07T10:54:07;3.30;89.60
79439;DHT22;68889;48.232;10.110;2023-12-07T10:56:44;3.40;89.20
79439;DHT22;68889;48.232;10.110;2023-12-07T10:59:11;3.50;89.50
79439;DHT22;68889;48.232;10.110;2023-12-07T11:01:40;3.60;88.80
79439;DHT22;68889;48.232;10.110;2023-12-07T11:04:06;3.50;89.30
79439;DHT22;68889;48.232;10.110;2023-12-07T11:06:33;3.60;89.10
79439;DHT22;68889;48.232;10.110;2023-12-07T11:09:03;3.70;88.90
79439;DHT22;68889;48.232;10.110;2023-12-07T11:11:54;3.70;89.30
79439;DHT22;68889;48.232;10.110;2023-12-07T11:14:22;3.80;88.70
79439;DHT22;68889;48.232;10.110;2023-12-07T11:16:48;3.80;88.50
79439;DHT22;68889;48.232;10.110;2023-12-07T11:19:43;3.90;88.10
79439;DHT22;68889;48.232;10.110;2023-12-07T11:22:13;4.00;88.20
79439;DHT22;68889;48.232;10.110;2023-12-07T11:24:55;4.00;88.30
79439;DHT22;68889;48.232;10.110;2023-12-07T11:27:24;4.10;87.70
79439;DHT22;68889;48.232;10.110;2023-12-07T11:29:50;4.20;87.60
79439;DHT22;68889;48.232;10.110;2023-12-07T11:32:16;4.30;87.40
79439;DHT22;68889;48.232;10.110;2023-12-07T11:34:43;4.30;87.10
79439;DHT22;68889;48.232;10.110;2023-12-07T11:37:13;4.30;87.00
79439;DHT22;68889;48.232;10.110;2023-12-07T11:39:40;4.30;87.10
79439;DHT22;68889;48.232;10.110;2023-12-07T11:42:15;4.40;86.90
79439;DHT22;68889;48.232;10.110;2023-12-07T11:44:42;4.40;87.10
79439;DHT22;68889;48.232;10.110;2023-12-07T11:47:10;4.40;86.90
79439;DHT22;68889;48.232;10.110;2023-12-07T11:49:42;4.40;87.20
79439;DHT22;68889;48.232;10.110;2023-12-07T11:52:20;4.50;86.80
79439;DHT22;68889;48.232;10.110;2023-12-07T11:54:47;4.50;86.40
79439;DHT22;68889;48.232;10.110;2023-12-07T11:57:14;4.50;86.30
79439;DHT22;68889;48.232;10.110;2023-12-07T11:59:41;4.50;86.10
79439;DHT22;68889;48.232;10.110;2023-12-07T12:02:07;4.60;84.70
79439;DHT22;68889;48.232;10.110;2023-12-07T12:04:34;4.60;85.40
79439;DHT22;68889;48.232;10.110;2023-12-07T12:07:00;4.60;84.20
79439;DHT22;68889;48.232;10.110;2023-12-07T12:09:26;4.60;84.20
79439;DHT22;68889;48.232;10.110;2023-12-07T12:11:52;4.70;84.20
79439;DHT22;68889;48.232;10.110;2023-12-07T12:14:18;4.70;84.20
79439;DHT22;68889;48.232;10.110;2023-12-07T12:16:46;4.80;83.50
79439;DHT22;68889;48.232;10.110;2023-12-07T12:19:13;4.80;82.90
79439;DHT22;68889;48.232;10.110;2023-12-07T12:21:40;4.80;83.70
79439;DHT22;68889;48.232;10.110;2023-12-07T12:24:09;4.80;82.10
79439;DHT22;68889;48.232;10.110;2023-12-07T12:26:37;4.80;82.30
79439;DHT22;68889;48.232;10.110;2023-12-07T12:29:05;4.80;82.50
79439;DHT22;68889;48.232;10.110;2023-12-07T12:31:31;4.90;79.90
79439;DHT22;68889;48.232;10.110;2023-12-07T12:33:57;4.90;79.40
79439;DHT22;68889;48.232;10.110;2023-12-07T12:36:23;4.90;77.10
79439;DHT22;68889;48.232;10.110;2023-12-07T12:38:52;4.90;78.50
79439;DHT22;68889;48.232;10.110;2023-12-07T12:41:19;5.00;80.20
79439;DHT22;68889;48.232;10.110;2023-12-07T12:43:45;5.00;78.00
79439;DHT22;68889;48.232;10.110;2023-12-07T12:46:11;5.10;76.20
79439;DHT22;68889;48.232;10.110;2023-12-07T12:48:37;5.10;75.40
79439;DHT22;68889;48.232;10.110;2023-12-07T12:51:15;5.00;74.60
79439;DHT22;68889;48.232;10.110;2023-12-07T12:53:47;5.00;75.30
79439;DHT22;68889;48.232;10.110;2023-12-07T12:56:15;5.00;76.90
79439;DHT22;68889;48.232;10.110;2023-12-07T12:58:41;4.90;72.60
79439;DHT22;68889;48.232;10.110;2023-12-07T13:01:07;4.80;71.90
79439;DHT22;68889;48.232;10.110;2023-12-07T13:03:33;4.80;71.60
79439;DHT22;68889;48.232;10.110;2023-12-07T13:05:59;4.80;70.60
79439;DHT22;68889;48.232;10.110;2023-12-07T13:08:25;4.90;74.60
79439;DHT22;68889;48.232;10.110;2023-12-07T13:10:52;5.10;71.80
79439;DHT22;68889;48.232;10.110;2023-12-07T13:13:18;5.30;75.90
79439;DHT22;68889;48.232;10.110;2023-12-07T13:15:44;5.30;72.30
79439;DHT22;68889;48.232;10.110;2023-12-07T13:18:10;5.20;70.80
79439;DHT22;68889;48.232;10.110;2023-12-07T13:20:35;5.20;72.90
79439;DHT22;68889;48.232;10.110;2023-12-07T13:23:01;5.10;74.20
79439;DHT22;68889;48.232;10.110;2023-12-07T13:25:26;4.90;73.50
79439;DHT22;68889;48.232;10.110;2023-12-07T13:27:52;4.90;71.80
79439;DHT22;68889;48.232;10.110;2023-12-07T13:30:18;4.90;71.40
79439;DHT22;68889;48.232;10.110;2023-12-07T13:32:45;5.00;73.70
79439;DHT22;68889;48.232;10.110;2023-12-07T13:35:11;5.10;74.60
79439;DHT22;68889;48.232;10.110;2023-12-07T13:37:38;5.10;73.20
79439;DHT22;68889;48.232;10.110;2023-12-07T13:40:04;5.10;73.60
79439;DHT22;68889;48.232;10.110;2023-12-07T13:42:31;5.20;74.10
79439;DHT22;68889;48.232;10.110;2023-12-07T13:44:58;5.20;74.40
79439;DHT22;68889;48.232;10.110;2023-12-07T13:47:26;5.20;73.50
79439;DHT22;68889;48.232;10.110;2023-12-07T13:49:56;5.00;74.00
79439;DHT22;68889;48.232;10.110;2023-12-07T13:52:22;4.90;73.50
79439;DHT22;68889;48.232;10.110;2023-12-07T13:54:48;4.70;74.00
79439;DHT22;68889;48.232;10.110;2023-12-07T13:57:14;4.70;72.20
79439;DHT22;68889;48.232;10.110;2023-12-07T13:59:40;4.60;72.20
79439;DHT22;68889;48.232;10.110;2023-12-07T14:02:06;4.50;76.00
79439;DHT22;68889;48.232;10.110;2023-12-07T14:04:33;4.40;77.00
79439;DHT22;68889;48.232;10.110;2023-12-07T14:07:15;4.30;71.30
79439;DHT22;68889;48.232;10.110;2023-12-07T14:09:43;4.20;74.20
79439;DHT22;68889;48.232;10.110;2023-12-07T14:12:11;4.00;75.70
79439;DHT22;68889;48.232;10.110;2023-12-07T14:14:39;3.90;75.70
79439;DHT22;68889;48.232;10.110;2023-12-07T14:17:05;3.80;76.10
79439;DHT22;68889;48.232;10.110;2023-12-07T14:19:33;3.60;76.10
79439;DHT22;68889;48.232;10.110;2023-12-07T14:21:59;3.50;78.60
79439;DHT22;68889;48.232;10.110;2023-12-07T14:24:25;3.40;79.00
79439;DHT22;68889;48.232;10.110;2023-12-07T14:26:51;3.40;78.80
79439;DHT22;68889;48.232;10.110;2023-12-07T14:29:17;3.50;79.10
79439;DHT22;68889;48.232;10.110;2023-12-07T14:31:47;3.50;78.90
79439;DHT22;68889;48.232;10.110;2023-12-07T14:34:13;3.60;78.70
79439;DHT22;68889;48.232;10.110;2023-12-07T14:36:41;3.70;77.40
79439;DHT22;68889;48.232;10.110;2023-12-07T14:39:11;3.70;77.30
79439;DHT22;68889;48.232;10.110;2023-12-07T14:41:43;3.60;78.20
79439;DHT22;68889;48.232;10.110;2023-12-07T14:44:11;3.40;79.00
79439;DHT22;68889;48.232;10.110;2023-12-07T14:46:37;3.20;78.70
79439;DHT22;68889;48.232;10.110;2023-12-07T14:49:04;3.10;80.10
79439;DHT22;68889;48.232;10.110;2023-12-07T14:51:30;2.90;80.40
79439;DHT22;68889;48.232;10.110;2023-12-07T14:53:58;2.70;80.40
79439;DHT22;68889;48.232;10.110;2023-12-07T14:56:24;2.50;80.80
79439;DHT22;68889;48.232;10.110;2023-12-07T14:58:50;2.30;81.80
79439;DHT22;68889;48.232;10.110;2023-12-07T15:01:16;2.10;82.00
79439;DHT22;68889;48.232;10.110;2023-12-07T15:03:41;1.90;81.70
79439;DHT22;68889;48.232;10.110;2023-12-07T15:06:07;1.80;83.10
79439;DHT22;68889;48.232;10.110;2023-12-07T15:08:34;1.60;84.00
79439;DHT22;68889;48.232;10.110;2023-12-07T15:11:00;1.40;84.50
79439;DHT22;68889;48.232;10.110;2023-12-07T15:13:26;1.30;83.90
79439;DHT22;68889;48.232;10.110;2023-12-07T15:15:52;1.10;85.50
79439;DHT22;68889;48.232;10.110;2023-12-07T15:18:18;0.90;85.00
79439;DHT22;68889;48.232;10.110;2023-12-07T15:20:43;0.70;86.60
79439;DHT22;68889;48.232;10.110;2023-12-07T15:23:09;0.50;87.60